Time;durP1;ratioP1;P1;durP2;ratioP2;P2;SDS_P1;SDS_P2;PMS_P1;PMS_P2;Temp;Humidity;BMP_temperature;BMP_pressure;BME280_temperature;BME280_humidity;BME280_pressure;Samples;Min_cycle;Max_cycle;Signal;HPM_P1;HPM_P2
2021/09/17 00:00:33;;;;;;;;;;;14.00;99.90;;;;;;5080799;28;19939;-76
2021/09/17 00:02:59;;;;;;;;;;;14.00;99.90;;;;;;5074166;28;19957;-75
2021/09/17 00:05:25;;;;;;;;;;;14.10;99.90;;;;;;5088668;28;20207;-76
2021/09/17 00:07:50;;;;;;;;;;;14.10;99.90;;;;;;5085078;28;19958;-76
2021/09/17 00:10:16;;;;;;;;;;;14.20;99.90;;;;;;5074848;28;19919;-76
2021/09/17 00:12:43;;;;;;;;;;;14.20;99.90;;;;;;5063649;28;19917;-76
2021/09/17 00:15:09;;;;;;;;;;;14.30;99.90;;;;;;5085125;28;20057;-76
2021/09/17 00:17:36;;;;;;;;;;;14.30;99.90;;;;;;5070115;28;19926;-76
2021/09/17 00:20:01;;;;;;;;;;;14.40;99.90;;;;;;5082503;28;20192;-77
2021/09/17 00:22:27;;;;;;;;;;;14.40;99.90;;;;;;5083107;28;19919;-75
2021/09/17 00:24:53;;;;;;;;;;;14.40;99.90;;;;;;5069265;28;19925;-76
2021/09/17 00:27:19;;;;;;;;;;;14.30;99.90;;;;;;5075966;28;19979;-76
2021/09/17 00:29:44;;;;;;;;;;;14.30;99.90;;;;;;5090203;28;20007;-76
2021/09/17 00:32:10;;;;;;;;;;;14.30;99.90;;;;;;5075091;28;20300;-76
2021/09/17 00:34:35;;;;;;;;;;;14.30;99.90;;;;;;5075250;28;20339;-76
2021/09/17 00:37:01;;;;;;;;;;;14.30;99.90;;;;;;5068486;28;20003;-75
2021/09/17 00:39:26;;;;;;;;;;;14.30;99.90;;;;;;5066792;28;19947;-76
2021/09/17 00:41:52;;;;;;;;;;;14.30;99.90;;;;;;5062970;28;19913;-76
2021/09/17 00:44:22;;;;;;;;;;;14.30;99.90;;;;;;5071685;28;19919;-76
2021/09/17 00:46:47;;;;;;;;;;;14.30;99.90;;;;;;5071835;28;19916;-75
2021/09/17 00:49:13;;;;;;;;;;;14.30;99.90;;;;;;5069266;28;19916;-75
2021/09/17 00:51:38;;;;;;;;;;;14.30;99.90;;;;;;5070972;28;19912;-76
2021/09/17 00:54:04;;;;;;;;;;;14.20;99.90;;;;;;5071851;28;19913;-75
2021/09/17 00:56:30;;;;;;;;;;;14.20;99.90;;;;;;5071515;28;19912;-76
2021/09/17 00:58:55;;;;;;;;;;;14.20;99.90;;;;;;5069601;28;19919;-76
2021/09/17 01:01:21;;;;;;;;;;;14.20;99.90;;;;;;5067678;28;19912;-76
2021/09/17 01:03:46;;;;;;;;;;;14.30;99.90;;;;;;5061456;28;19979;-76
2021/09/17 01:06:12;;;;;;;;;;;14.50;99.90;;;;;;5068993;28;19912;-77
2021/09/17 01:08:37;;;;;;;;;;;14.60;99.90;;;;;;5070149;28;19917;-76
2021/09/17 01:11:03;;;;;;;;;;;14.60;99.90;;;;;;5073488;28;19916;-76
2021/09/17 01:13:29;;;;;;;;;;;14.60;99.90;;;;;;5068242;28;19955;-76
2021/09/17 01:15:55;;;;;;;;;;;14.50;99.90;;;;;;5066582;28;19955;-76
2021/09/17 01:18:20;;;;;;;;;;;14.50;99.90;;;;;;5061083;28;19916;-76
2021/09/17 01:20:46;;;;;;;;;;;14.50;99.90;;;;;;5067911;28;20325;-76
2021/09/17 01:23:12;;;;;;;;;;;14.50;99.90;;;;;;5066131;28;19920;-76
2021/09/17 01:25:37;;;;;;;;;;;14.50;99.90;;;;;;5072674;28;19909;-75
2021/09/17 01:28:04;;;;;;;;;;;14.60;99.90;;;;;;5075662;28;20265;-76
2021/09/17 01:30:30;;;;;;;;;;;14.60;99.90;;;;;;5069508;28;19909;-75
2021/09/17 01:32:55;;;;;;;;;;;14.60;99.90;;;;;;5072883;28;19962;-76
2021/09/17 01:35:22;;;;;;;;;;;14.60;99.90;;;;;;5066940;28;19963;-75
2021/09/17 01:37:48;;;;;;;;;;;14.60;99.90;;;;;;5063770;28;19920;-76
2021/09/17 01:40:14;;;;;;;;;;;14.70;99.90;;;;;;5068942;28;20023;-76
2021/09/17 01:42:40;;;;;;;;;;;14.80;99.90;;;;;;5067961;28;19913;-76
2021/09/17 01:45:07;;;;;;;;;;;14.80;99.90;;;;;;5065178;28;19915;-76
2021/09/17 01:47:32;;;;;;;;;;;14.80;99.90;;;;;;5069899;28;20254;-77
2021/09/17 01:49:58;;;;;;;;;;;14.80;99.90;;;;;;5084341;28;19919;-75
2021/09/17 01:54:55;;;;;;;;;;;15.00;99.90;;;;;;5074342;28;19955;-76
2021/09/17 01:57:20;;;;;;;;;;;15.00;99.90;;;;;;5077023;28;19947;-76
2021/09/17 01:59:46;;;;;;;;;;;15.00;99.90;;;;;;5083398;28;19920;-76
2021/09/17 02:02:12;;;;;;;;;;;15.00;99.90;;;;;;5088288;28;20268;-76
2021/09/17 02:04:37;;;;;;;;;;;15.00;99.90;;;;;;5079322;28;19912;-75
2021/09/17 02:07:03;;;;;;;;;;;15.00;99.90;;;;;;5093573;28;19912;-76
2021/09/17 02:09:28;;;;;;;;;;;15.00;99.90;;;;;;5094167;28;20412;-76
2021/09/17 02:11:54;;;;;;;;;;;15.10;99.90;;;;;;5079040;28;19913;-76
2021/09/17 02:14:20;;;;;;;;;;;15.00;99.90;;;;;;5071472;28;19962;-76
2021/09/17 02:16:45;;;;;;;;;;;15.00;99.90;;;;;;5094515;28;19908;-77
2021/09/17 02:19:11;;;;;;;;;;;15.10;99.90;;;;;;5091832;28;20041;-76
2021/09/17 02:21:39;;;;;;;;;;;15.10;99.90;;;;;;5070318;28;20220;-77
2021/09/17 02:24:05;;;;;;;;;;;15.10;99.90;;;;;;5060842;28;19928;-76
2021/09/17 02:26:31;;;;;;;;;;;15.10;99.90;;;;;;5080482;28;19912;-77
2021/09/17 02:28:56;;;;;;;;;;;15.20;99.90;;;;;;5076596;28;20327;-76
2021/09/17 02:31:22;;;;;;;;;;;15.20;99.90;;;;;;5068981;28;20292;-76
2021/09/17 02:33:48;;;;;;;;;;;15.30;99.90;;;;;;5082674;28;19966;-76
2021/09/17 02:36:13;;;;;;;;;;;15.40;99.90;;;;;;5078490;28;19919;-76
2021/09/17 02:38:40;;;;;;;;;;;15.40;99.90;;;;;;5083250;28;20000;-77
2021/09/17 02:41:05;;;;;;;;;;;15.40;99.90;;;;;;5078514;28;19913;-76
2021/09/17 02:43:31;;;;;;;;;;;15.40;99.90;;;;;;5058983;28;19909;-76
2021/09/17 02:45:58;;;;;;;;;;;15.50;99.90;;;;;;5058753;28;19917;-77
2021/09/17 02:48:25;;;;;;;;;;;15.40;99.90;;;;;;5078975;28;20307;-76
2021/09/17 02:50:50;;;;;;;;;;;15.40;99.90;;;;;;5065673;28;20000;-76
2021/09/17 02:53:16;;;;;;;;;;;15.40;99.90;;;;;;5072133;28;20446;-77
2021/09/17 02:55:41;;;;;;;;;;;15.40;99.90;;;;;;5073425;28;20230;-76
2021/09/17 02:58:07;;;;;;;;;;;15.40;99.90;;;;;;5082403;28;19958;-75
2021/09/17 03:00:33;;;;;;;;;;;15.40;99.90;;;;;;5075022;28;19924;-76
2021/09/17 03:02:58;;;;;;;;;;;15.50;99.90;;;;;;5078306;28;19962;-76
2021/09/17 03:05:24;;;;;;;;;;;15.50;99.90;;;;;;5079807;28;19954;-76
2021/09/17 03:07:49;;;;;;;;;;;15.50;99.90;;;;;;5078985;28;19919;-76
2021/09/17 03:10:15;;;;;;;;;;;15.50;99.90;;;;;;5069536;28;19913;-76
2021/09/17 03:12:41;;;;;;;;;;;15.50;99.90;;;;;;5075922;28;20004;-76
2021/09/17 03:15:07;;;;;;;;;;;15.40;99.90;;;;;;5080389;28;19927;-77
2021/09/17 03:17:33;;;;;;;;;;;15.40;99.90;;;;;;5082873;28;19954;-76
2021/09/17 03:19:58;;;;;;;;;;;15.40;99.90;;;;;;5082355;28;19959;-76
2021/09/17 03:22:24;;;;;;;;;;;15.40;99.90;;;;;;5083868;28;19912;-76
2021/09/17 03:24:49;;;;;;;;;;;15.40;99.90;;;;;;5079728;28;19924;-76
2021/09/17 03:27:15;;;;;;;;;;;15.40;99.90;;;;;;5087240;28;19932;-76
2021/09/17 03:29:41;;;;;;;;;;;15.40;99.90;;;;;;5069901;28;19912;-76
2021/09/17 03:32:07;;;;;;;;;;;15.40;99.90;;;;;;5077466;28;19916;-76
2021/09/17 03:34:32;;;;;;;;;;;15.40;99.90;;;;;;5082353;28;19908;-76
2021/09/17 03:36:58;;;;;;;;;;;15.40;99.90;;;;;;5075129;28;19916;-76
2021/09/17 03:39:23;;;;;;;;;;;15.40;99.90;;;;;;5072534;28;19981;-76
2021/09/17 03:41:49;;;;;;;;;;;15.40;99.90;;;;;;5090729;28;19918;-76
2021/09/17 03:44:14;;;;;;;;;;;15.30;99.90;;;;;;5078482;28;19913;-75
2021/09/17 03:46:40;;;;;;;;;;;15.20;99.90;;;;;;5089848;28;19913;-76
2021/09/17 03:49:06;;;;;;;;;;;15.20;99.90;;;;;;5071514;28;19930;-76
2021/09/17 03:51:31;;;;;;;;;;;15.20;99.90;;;;;;5090538;28;20277;-76
2021/09/17 03:53:57;;;;;;;;;;;15.20;99.90;;;;;;5085853;28;19912;-75
2021/09/17 03:56:23;;;;;;;;;;;15.20;99.90;;;;;;5064338;28;20002;-76
2021/09/17 03:58:48;;;;;;;;;;;15.10;99.90;;;;;;5083949;28;19928;-76
2021/09/17 04:01:14;;;;;;;;;;;15.00;99.90;;;;;;5069000;28;19913;-76
2021/09/17 04:03:39;;;;;;;;;;;15.00;99.90;;;;;;5084426;28;20231;-76
2021/09/17 04:06:05;;;;;;;;;;;15.00;99.90;;;;;;5082733;28;19959;-76
2021/09/17 04:08:30;;;;;;;;;;;15.00;99.90;;;;;;5094908;28;20326;-76
2021/09/17 04:10:56;;;;;;;;;;;15.00;99.90;;;;;;5088501;28;19916;-76
2021/09/17 04:13:22;;;;;;;;;;;15.00;99.90;;;;;;5064883;28;19909;-76
2021/09/17 04:15:47;;;;;;;;;;;15.00;99.90;;;;;;5083181;28;19916;-76
2021/09/17 04:18:13;;;;;;;;;;;15.00;99.90;;;;;;5070232;28;19924;-76
2021/09/17 04:20:38;;;;;;;;;;;14.90;99.90;;;;;;5061390;28;20227;-75
2021/09/17 04:23:04;;;;;;;;;;;15.00;99.90;;;;;;5088950;28;20322;-76
2021/09/17 04:25:30;;;;;;;;;;;14.90;99.90;;;;;;5072631;28;19924;-76
2021/09/17 04:27:55;;;;;;;;;;;14.90;99.90;;;;;;5082318;28;19916;-76
2021/09/17 04:30:21;;;;;;;;;;;14.90;99.90;;;;;;5068912;28;19913;-76
2021/09/17 04:32:47;;;;;;;;;;;14.90;99.90;;;;;;5086927;28;19923;-76
2021/09/17 04:35:13;;;;;;;;;;;15.00;99.90;;;;;;5077518;28;19956;-76
2021/09/17 04:37:40;;;;;;;;;;;15.00;99.90;;;;;;5069280;28;19917;-76
2021/09/17 04:40:06;;;;;;;;;;;15.10;99.90;;;;;;5076871;28;20510;-76
2021/09/17 04:42:31;;;;;;;;;;;15.10;99.90;;;;;;5085630;28;19909;-75
2021/09/17 04:44:57;;;;;;;;;;;15.10;99.90;;;;;;5066419;28;20003;-76
2021/09/17 04:47:22;;;;;;;;;;;15.00;99.90;;;;;;5068775;28;20011;-76
2021/09/17 04:49:48;;;;;;;;;;;15.00;99.90;;;;;;5069534;28;19920;-75
2021/09/17 04:52:13;;;;;;;;;;;15.00;99.90;;;;;;5089093;28;19908;-77
2021/09/17 04:54:40;;;;;;;;;;;15.00;99.90;;;;;;5074558;28;19919;-76
2021/09/17 04:57:05;;;;;;;;;;;15.00;99.90;;;;;;5066023;28;19951;-76
2021/09/17 04:59:31;;;;;;;;;;;15.00;99.90;;;;;;5070748;28;19971;-75
2021/09/17 05:01:56;;;;;;;;;;;15.00;99.90;;;;;;5059164;28;19943;-76
2021/09/17 05:04:22;;;;;;;;;;;15.00;99.90;;;;;;5088088;28;19924;-76
2021/09/17 05:06:47;;;;;;;;;;;15.00;99.90;;;;;;5070968;28;19920;-75
2021/09/17 05:09:13;;;;;;;;;;;15.00;99.90;;;;;;5090647;28;20191;-75
2021/09/17 05:11:39;;;;;;;;;;;15.00;99.90;;;;;;5075175;28;20207;-76
2021/09/17 05:14:04;;;;;;;;;;;15.00;99.90;;;;;;5083170;28;20253;-76
2021/09/17 05:16:32;;;;;;;;;;;15.00;99.90;;;;;;5073956;28;19958;-76
2021/09/17 05:18:58;;;;;;;;;;;14.90;99.90;;;;;;5063881;28;19966;-75
2021/09/17 05:21:24;;;;;;;;;;;15.00;99.90;;;;;;5062405;28;19956;-76
2021/09/17 05:23:49;;;;;;;;;;;15.00;99.90;;;;;;5074135;28;19983;-75
2021/09/17 05:26:15;;;;;;;;;;;15.00;99.90;;;;;;5061618;28;19912;-76
2021/09/17 05:28:40;;;;;;;;;;;15.00;99.90;;;;;;5070486;28;19916;-76
2021/09/17 05:31:06;;;;;;;;;;;15.00;99.90;;;;;;5072369;28;19958;-76
2021/09/17 05:33:32;;;;;;;;;;;15.00;99.90;;;;;;5073803;28;20307;-76
2021/09/17 05:35:57;;;;;;;;;;;15.00;99.90;;;;;;5069680;28;19924;-76
2021/09/17 05:38:23;;;;;;;;;;;15.00;99.90;;;;;;5069675;28;19916;-76
2021/09/17 05:40:48;;;;;;;;;;;15.00;99.90;;;;;;5083688;28;20367;-76
2021/09/17 05:43:14;;;;;;;;;;;15.10;99.90;;;;;;5058761;28;19919;-76
2021/09/17 05:45:39;;;;;;;;;;;15.10;99.90;;;;;;5068879;28;20000;-75
2021/09/17 05:48:05;;;;;;;;;;;15.20;99.90;;;;;;5064462;28;19955;-76
2021/09/17 05:50:30;;;;;;;;;;;15.20;99.90;;;;;;5073501;28;19908;-76
2021/09/17 05:52:56;;;;;;;;;;;15.20;99.90;;;;;;5074097;28;19919;-76
2021/09/17 05:55:26;;;;;;;;;;;15.10;99.90;;;;;;5074806;28;19912;-76
2021/09/17 05:57:52;;;;;;;;;;;15.20;99.90;;;;;;5073813;28;19922;-76
2021/09/17 06:00:18;;;;;;;;;;;15.20;99.90;;;;;;5062554;28;19916;-75
2021/09/17 06:02:44;;;;;;;;;;;15.20;99.90;;;;;;5092906;28;19908;-76
2021/09/17 06:05:09;;;;;;;;;;;15.20;99.90;;;;;;5086974;28;19919;-76
2021/09/17 06:07:39;;;;;;;;;;;15.20;99.90;;;;;;5073478;28;20320;-76
2021/09/17 06:10:04;;;;;;;;;;;15.30;99.90;;;;;;5086893;28;19908;-76
2021/09/17 06:12:30;;;;;;;;;;;15.30;99.90;;;;;;5089205;28;19931;-76
2021/09/17 06:14:56;;;;;;;;;;;15.30;99.90;;;;;;5072772;28;19951;-77
2021/09/17 06:17:22;;;;;;;;;;;15.40;99.90;;;;;;5073414;28;19919;-76
2021/09/17 06:19:47;;;;;;;;;;;15.40;99.90;;;;;;5086071;28;19924;-76
2021/09/17 06:22:13;;;;;;;;;;;15.40;99.90;;;;;;5079978;28;19941;-76
2021/09/17 06:24:39;;;;;;;;;;;15.40;99.90;;;;;;5083459;28;19973;-74
2021/09/17 06:27:05;;;;;;;;;;;15.50;99.90;;;;;;5089459;28;19919;-75
2021/09/17 06:29:30;;;;;;;;;;;15.50;99.90;;;;;;5076962;28;19912;-75
2021/09/17 06:31:56;;;;;;;;;;;15.50;99.90;;;;;;5089144;28;19916;-76
2021/09/17 06:34:21;;;;;;;;;;;15.50;99.90;;;;;;5087335;28;19921;-76
2021/09/17 06:36:47;;;;;;;;;;;15.60;99.90;;;;;;5086582;28;19927;-76
2021/09/17 06:39:12;;;;;;;;;;;15.50;99.90;;;;;;5086270;28;20019;-75
2021/09/17 06:41:38;;;;;;;;;;;15.60;99.90;;;;;;5087775;28;19920;-76
2021/09/17 06:44:04;;;;;;;;;;;15.60;99.90;;;;;;5078260;28;19924;-76
2021/09/17 06:46:29;;;;;;;;;;;15.70;99.90;;;;;;5086920;28;20007;-75
2021/09/17 06:48:55;;;;;;;;;;;15.70;99.90;;;;;;5088336;28;19919;-76
2021/09/17 06:51:20;;;;;;;;;;;15.80;99.90;;;;;;5084749;28;19913;-75
2021/09/17 06:53:46;;;;;;;;;;;15.90;99.90;;;;;;5086303;28;19912;-75
2021/09/17 06:56:12;;;;;;;;;;;16.00;99.90;;;;;;5086157;28;19912;-76
2021/09/17 06:58:38;;;;;;;;;;;16.00;99.90;;;;;;5087285;28;20595;-75
2021/09/17 07:01:03;;;;;;;;;;;16.10;99.90;;;;;;5088753;28;19916;-76
2021/09/17 07:03:29;;;;;;;;;;;16.20;99.90;;;;;;5088435;28;19966;-75
2021/09/17 07:05:55;;;;;;;;;;;16.20;99.90;;;;;;5080842;28;19919;-76
2021/09/17 07:08:20;;;;;;;;;;;16.30;99.90;;;;;;5085154;28;19912;-76
2021/09/17 07:10:47;;;;;;;;;;;16.30;99.90;;;;;;5078240;28;19920;-76
2021/09/17 07:13:12;;;;;;;;;;;16.30;99.90;;;;;;5075493;28;19912;-76
2021/09/17 07:15:38;;;;;;;;;;;16.30;99.90;;;;;;5082889;28;19969;-76
2021/09/17 07:18:04;;;;;;;;;;;16.20;99.90;;;;;;5089989;28;20405;-75
2021/09/17 07:20:30;;;;;;;;;;;16.20;99.90;;;;;;5084687;28;19916;-76
2021/09/17 07:22:56;;;;;;;;;;;16.20;99.90;;;;;;5077989;28;19923;-76
2021/09/17 07:25:21;;;;;;;;;;;16.20;99.90;;;;;;5074576;28;20227;-76
2021/09/17 07:27:47;;;;;;;;;;;16.10;99.90;;;;;;5086447;28;19912;-76
2021/09/17 07:30:13;;;;;;;;;;;16.10;99.90;;;;;;5083605;28;19916;-76
2021/09/17 07:32:39;;;;;;;;;;;16.10;99.90;;;;;;5069775;28;19986;-76
2021/09/17 07:35:05;;;;;;;;;;;16.10;99.90;;;;;;5082174;28;19913;-76
2021/09/17 07:37:30;;;;;;;;;;;16.10;99.90;;;;;;5072260;28;19944;-75
2021/09/17 07:39:56;;;;;;;;;;;16.10;99.90;;;;;;5067902;28;19995;-76
2021/09/17 07:42:21;;;;;;;;;;;16.20;99.90;;;;;;5070427;28;19917;-76
2021/09/17 07:44:48;;;;;;;;;;;16.20;99.90;;;;;;5080978;28;19916;-76
2021/09/17 07:47:13;;;;;;;;;;;16.20;99.90;;;;;;5070228;28;19944;-76
2021/09/17 07:49:39;;;;;;;;;;;16.10;99.90;;;;;;5075961;28;19952;-76
2021/09/17 07:52:05;;;;;;;;;;;16.20;99.90;;;;;;5078396;28;19912;-76
2021/09/17 07:54:30;;;;;;;;;;;16.20;99.90;;;;;;5086062;28;20219;-76
2021/09/17 07:56:56;;;;;;;;;;;16.20;99.90;;;;;;5071093;28;20379;-76
2021/09/17 07:59:22;;;;;;;;;;;16.20;99.90;;;;;;5077049;28;19913;-76
2021/09/17 08:01:47;;;;;;;;;;;16.20;99.90;;;;;;5077289;28;20015;-76
2021/09/17 08:04:13;;;;;;;;;;;16.30;99.90;;;;;;5088234;28;19917;-76
2021/09/17 08:06:39;;;;;;;;;;;16.30;99.90;;;;;;5080316;28;20314;-76
2021/09/17 08:09:06;;;;;;;;;;;16.40;99.90;;;;;;5075832;28;19912;-76
2021/09/17 08:11:32;;;;;;;;;;;16.50;99.90;;;;;;5074889;28;19909;-76
2021/09/17 08:13:58;;;;;;;;;;;16.60;99.90;;;;;;5073234;28;20001;-75
2021/09/17 08:16:23;;;;;;;;;;;16.60;99.90;;;;;;5071915;28;19938;-76
2021/09/17 08:18:49;;;;;;;;;;;16.60;99.90;;;;;;5068393;28;20215;-76
2021/09/17 08:21:15;;;;;;;;;;;16.70;99.90;;;;;;5066244;28;19912;-76
2021/09/17 08:23:41;;;;;;;;;;;16.70;99.90;;;;;;5068987;28;20327;-76
2021/09/17 08:26:07;;;;;;;;;;;16.80;99.90;;;;;;5079761;28;19924;-77
2021/09/17 08:28:32;;;;;;;;;;;16.80;99.90;;;;;;5073468;28;20655;-77
2021/09/17 08:31:00;;;;;;;;;;;16.90;99.90;;;;;;5060299;28;19920;-77
2021/09/17 08:33:26;;;;;;;;;;;16.90;99.90;;;;;;5072498;28;20147;-77
2021/09/17 08:35:51;;;;;;;;;;;16.90;99.90;;;;;;5074969;28;20325;-76
2021/09/17 08:38:17;;;;;;;;;;;17.00;99.90;;;;;;5075859;28;19928;-77
2021/09/17 08:40:42;;;;;;;;;;;17.00;99.90;;;;;;5084043;28;20338;-76
2021/09/17 08:43:08;;;;;;;;;;;17.10;99.90;;;;;;5081042;28;19917;-78
2021/09/17 08:45:34;;;;;;;;;;;17.20;99.90;;;;;;5065220;28;19935;-76
2021/09/17 08:48:00;;;;;;;;;;;17.20;99.90;;;;;;5062125;28;20307;-76
2021/09/17 08:50:25;;;;;;;;;;;17.20;99.90;;;;;;5067530;28;19916;-77
2021/09/17 08:52:51;;;;;;;;;;;17.30;99.90;;;;;;5075011;28;19920;-77
2021/09/17 08:55:17;;;;;;;;;;;17.40;99.90;;;;;;5077062;28;19921;-77
2021/09/17 08:57:43;;;;;;;;;;;17.40;99.90;;;;;;5084274;28;20233;-77
2021/09/17 09:00:30;;;;;;;;;;;17.50;99.90;;;;;;5074639;28;19923;-77
2021/09/17 09:02:57;;;;;;;;;;;17.50;99.90;;;;;;5057334;28;19916;-78
2021/09/17 09:05:30;;;;;;;;;;;17.60;99.90;;;;;;5072482;28;19916;-77
2021/09/17 09:07:56;;;;;;;;;;;17.70;99.90;;;;;;5069077;28;20003;-77
2021/09/17 09:10:22;;;;;;;;;;;17.90;99.90;;;;;;5072463;28;20007;-77
2021/09/17 09:12:49;;;;;;;;;;;17.90;99.90;;;;;;5078283;28;19924;-76
2021/09/17 09:15:15;;;;;;;;;;;18.00;99.90;;;;;;5085695;28;20219;-77
2021/09/17 09:17:45;;;;;;;;;;;18.10;99.90;;;;;;5075045;28;19913;-77
2021/09/17 09:20:22;;;;;;;;;;;18.10;99.90;;;;;;5067170;28;19917;-78
2021/09/17 09:23:03;;;;;;;;;;;18.20;99.90;;;;;;5062340;28;19924;-77
2021/09/17 09:25:29;;;;;;;;;;;18.20;99.90;;;;;;5061115;28;19917;-77
2021/09/17 09:28:08;;;;;;;;;;;18.20;99.90;;;;;;5060876;28;20007;-78
2021/09/17 09:30:34;;;;;;;;;;;18.20;99.90;;;;;;5063617;28;19974;-78
2021/09/17 09:33:19;;;;;;;;;;;18.20;99.90;;;;;;5081989;28;19909;-77
2021/09/17 09:35:44;;;;;;;;;;;18.30;99.90;;;;;;5079774;28;20005;-78
2021/09/17 09:38:10;;;;;;;;;;;18.30;99.90;;;;;;5074259;28;19955;-78
2021/09/17 09:40:36;;;;;;;;;;;18.40;99.90;;;;;;5076956;28;19916;-78
2021/09/17 09:43:04;;;;;;;;;;;18.40;99.90;;;;;;5067402;28;20301;-79
2021/09/17 09:45:31;;;;;;;;;;;18.40;99.90;;;;;;5082632;28;19912;-78
2021/09/17 09:47:57;;;;;;;;;;;18.50;99.90;;;;;;5075714;28;19913;-78
2021/09/17 09:50:24;;;;;;;;;;;18.50;99.90;;;;;;5073551;28;19958;-78
2021/09/17 09:52:53;;;;;;;;;;;18.50;99.90;;;;;;5076419;28;20007;-78
2021/09/17 09:55:19;;;;;;;;;;;18.50;99.90;;;;;;5073899;28;19917;-79
2021/09/17 09:57:45;;;;;;;;;;;18.40;99.90;;;;;;5079106;28;20311;-78
2021/09/17 10:00:12;;;;;;;;;;;18.50;99.90;;;;;;5079008;28;19912;-78
2021/09/17 10:02:38;;;;;;;;;;;18.50;99.90;;;;;;5079116;28;19917;-77
2021/09/17 10:05:05;;;;;;;;;;;18.50;99.90;;;;;;5079716;28;20003;-77
2021/09/17 10:07:31;;;;;;;;;;;18.60;99.90;;;;;;5083630;28;19915;-77
2021/09/17 10:09:57;;;;;;;;;;;18.70;99.90;;;;;;5061325;28;19912;-77
2021/09/17 10:12:24;;;;;;;;;;;18.90;99.90;;;;;;5080835;28;19916;-77
2021/09/17 10:14:50;;;;;;;;;;;19.00;99.90;;;;;;5078706;28;19912;-77
2021/09/17 10:17:20;;;;;;;;;;;19.20;99.90;;;;;;5086226;28;19915;-78
2021/09/17 10:19:49;;;;;;;;;;;19.30;99.90;;;;;;5079619;28;19924;-77
2021/09/17 10:22:34;;;;;;;;;;;19.40;99.90;;;;;;5072395;28;20216;-77
2021/09/17 10:25:13;;;;;;;;;;;19.50;99.90;;;;;;5077349;28;20395;-77
2021/09/17 10:27:41;;;;;;;;;;;19.60;99.90;;;;;;5085047;28;19919;-76
2021/09/17 10:30:08;;;;;;;;;;;19.70;99.90;;;;;;5077594;28;19912;-78
2021/09/17 10:32:35;;;;;;;;;;;19.70;99.90;;;;;;5077216;28;19908;-77
2021/09/17 10:35:17;;;;;;;;;;;19.70;99.90;;;;;;5076734;28;19985;-77
2021/09/17 10:37:52;;;;;;;;;;;19.60;99.90;;;;;;5070259;28;20319;-78
2021/09/17 10:40:32;;;;;;;;;;;19.70;99.90;;;;;;5071260;28;19938;-76
2021/09/17 10:43:10;;;;;;;;;;;19.80;99.90;;;;;;5066842;28;20310;-78
2021/09/17 10:45:39;;;;;;;;;;;19.80;99.90;;;;;;5074417;28;19919;-78
2021/09/17 10:48:05;;;;;;;;;;;19.90;99.90;;;;;;5067698;28;19936;-77
2021/09/17 10:50:38;;;;;;;;;;;20.00;99.90;;;;;;5069573;28;19920;-77
2021/09/17 10:53:04;;;;;;;;;;;20.10;99.90;;;;;;5064775;28;19944;-77
2021/09/17 10:55:45;;;;;;;;;;;20.20;99.90;;;;;;5084031;28;19966;-78
2021/09/17 10:58:20;;;;;;;;;;;20.20;99.90;;;;;;5084552;28;19998;-77
2021/09/17 11:00:57;;;;;;;;;;;20.20;99.90;;;;;;5071319;28;19966;-77
2021/09/17 11:03:50;;;;;;;;;;;20.10;99.90;;;;;;5083633;28;20215;-77
2021/09/17 11:06:18;;;;;;;;;;;20.00;99.90;;;;;;5071401;28;19999;-76
2021/09/17 11:08:46;;;;;;;;;;;20.00;99.90;;;;;;5069309;28;20314;-77
2021/09/17 11:11:22;;;;;;;;;;;19.90;99.90;;;;;;5070910;28;20212;-77
2021/09/17 11:13:48;;;;;;;;;;;19.90;99.90;;;;;;5081532;28;20050;-77
2021/09/17 11:16:16;;;;;;;;;;;19.90;99.90;;;;;;5071936;28;19999;-77
2021/09/17 11:19:05;;;;;;;;;;;20.00;99.90;;;;;;5081322;28;20308;-77
2021/09/17 11:21:32;;;;;;;;;;;20.00;99.90;;;;;;5077049;28;19923;-78
2021/09/17 11:23:58;;;;;;;;;;;20.00;99.90;;;;;;5072360;28;20011;-77
2021/09/17 11:26:33;;;;;;;;;;;20.10;99.90;;;;;;5072797;28;20010;-78
2021/09/17 11:29:04;;;;;;;;;;;20.10;99.90;;;;;;5082286;28;19912;-78
2021/09/17 11:31:36;;;;;;;;;;;20.20;99.90;;;;;;5083974;28;20003;-78
2021/09/17 11:34:06;;;;;;;;;;;20.20;99.90;;;;;;5082798;28;19916;-79
2021/09/17 11:36:32;;;;;;;;;;;20.20;99.90;;;;;;5077119;28;19912;-77
2021/09/17 11:39:09;;;;;;;;;;;20.20;99.90;;;;;;5077406;28;19924;-78
2021/09/17 11:41:35;;;;;;;;;;;20.30;99.90;;;;;;5073991;28;19944;-78
2021/09/17 11:44:01;;;;;;;;;;;20.30;99.90;;;;;;5076039;28;20306;-77
2021/09/17 11:46:26;;;;;;;;;;;20.30;99.90;;;;;;5076875;28;19920;-78
2021/09/17 11:48:52;;;;;;;;;;;20.30;99.90;;;;;;5075389;28;19908;-78
2021/09/17 11:51:20;;;;;;;;;;;20.30;99.90;;;;;;5060089;28;19917;-76
2021/09/17 11:53:46;;;;;;;;;;;20.30;99.90;;;;;;5077467;28;20317;-77
2021/09/17 11:56:12;;;;;;;;;;;20.30;99.90;;;;;;5087705;28;19998;-78
2021/09/17 11:58:44;;;;;;;;;;;20.30;99.90;;;;;;5092728;28;20066;-76
2021/09/17 12:01:23;;;;;;;;;;;20.20;99.90;;;;;;5076829;28;19912;-78
2021/09/17 12:03:49;;;;;;;;;;;20.30;99.90;;;;;;5076732;28;19913;-77
2021/09/17 12:06:16;;;;;;;;;;;20.30;99.90;;;;;;5073704;28;20521;-77
2021/09/17 12:08:41;;;;;;;;;;;20.30;99.90;;;;;;5073243;28;19947;-77
2021/09/17 12:11:07;;;;;;;;;;;20.30;99.90;;;;;;5072595;28;19956;-77
2021/09/17 12:13:33;;;;;;;;;;;20.40;99.90;;;;;;5075613;28;20355;-77
2021/09/17 12:15:59;;;;;;;;;;;20.40;99.90;;;;;;5062663;28;20204;-76
2021/09/17 12:18:29;;;;;;;;;;;20.40;99.90;;;;;;5075567;28;19912;-78
2021/09/17 12:20:55;;;;;;;;;;;20.50;99.90;;;;;;5074517;28;19912;-77
2021/09/17 12:23:22;;;;;;;;;;;20.50;99.90;;;;;;5076286;28;19928;-78
2021/09/17 12:25:48;;;;;;;;;;;20.40;99.90;;;;;;5075111;28;19920;-77
2021/09/17 12:28:18;;;;;;;;;;;20.40;99.90;;;;;;5063704;28;19923;-78
2021/09/17 12:30:44;;;;;;;;;;;20.30;99.90;;;;;;5063277;28;19913;-78
2021/09/17 12:33:19;;;;;;;;;;;20.20;99.90;;;;;;5070562;28;19909;-77
2021/09/17 12:35:45;;;;;;;;;;;20.20;99.90;;;;;;5069823;28;19962;-78
2021/09/17 12:38:12;;;;;;;;;;;20.20;99.90;;;;;;5071496;28;20317;-78
2021/09/17 12:40:40;;;;;;;;;;;20.10;99.90;;;;;;5083724;28;20342;-77
2021/09/17 12:43:07;;;;;;;;;;;20.10;99.90;;;;;;5081719;28;19940;-77
2021/09/17 12:45:34;;;;;;;;;;;19.80;99.90;;;;;;5093990;28;19926;-77
2021/09/17 12:48:01;;;;;;;;;;;19.70;99.90;;;;;;5078424;28;20239;-77
2021/09/17 12:50:46;;;;;;;;;;;19.60;99.90;;;;;;5085459;28;19909;-77
2021/09/17 12:53:14;;;;;;;;;;;19.50;99.90;;;;;;5067453;28;20000;-77
2021/09/17 12:55:40;;;;;;;;;;;19.50;99.90;;;;;;5079289;28;19930;-77
2021/09/17 12:58:07;;;;;;;;;;;19.50;99.90;;;;;;5096626;28;19979;-77
2021/09/17 13:00:35;;;;;;;;;;;19.50;99.90;;;;;;5077402;28;19920;-77
2021/09/17 13:03:04;;;;;;;;;;;19.50;99.90;;;;;;5085655;28;19908;-77
2021/09/17 13:05:31;;;;;;;;;;;19.50;99.90;;;;;;5077422;28;19908;-77
2021/09/17 13:07:57;;;;;;;;;;;19.50;99.90;;;;;;5074558;28;19916;-77
2021/09/17 13:10:23;;;;;;;;;;;19.50;99.90;;;;;;5076748;28;20019;-77
2021/09/17 13:12:49;;;;;;;;;;;19.60;99.90;;;;;;5080586;28;20283;-76
2021/09/17 13:15:14;;;;;;;;;;;19.60;99.90;;;;;;5067442;28;19919;-77
2021/09/17 13:17:40;;;;;;;;;;;19.70;99.90;;;;;;5072682;28;19919;-77
2021/09/17 13:20:06;;;;;;;;;;;19.80;99.90;;;;;;5095769;28;19935;-77
2021/09/17 13:22:32;;;;;;;;;;;19.80;99.90;;;;;;5085925;28;19946;-78
2021/09/17 13:24:59;;;;;;;;;;;19.90;99.90;;;;;;5068011;28;20026;-77
2021/09/17 13:27:24;;;;;;;;;;;20.00;99.90;;;;;;5076388;28;19921;-77
2021/09/17 13:29:50;;;;;;;;;;;20.00;99.90;;;;;;5073236;28;19923;-76
2021/09/17 13:32:15;;;;;;;;;;;20.00;99.90;;;;;;5077807;28;20299;-76
2021/09/17 13:34:41;;;;;;;;;;;20.00;99.90;;;;;;5069617;28;19912;-76
2021/09/17 13:37:06;;;;;;;;;;;19.90;99.90;;;;;;5076782;28;19954;-76
2021/09/17 13:39:32;;;;;;;;;;;20.00;99.90;;;;;;5076561;28;20624;-77
2021/09/17 13:41:58;;;;;;;;;;;20.00;99.90;;;;;;5084230;28;20354;-76
2021/09/17 13:44:23;;;;;;;;;;;20.00;99.90;;;;;;5081329;28;20261;-76
2021/09/17 13:46:49;;;;;;;;;;;20.00;99.90;;;;;;5077614;28;19913;-76
2021/09/17 13:49:15;;;;;;;;;;;20.10;99.90;;;;;;5089343;28;19944;-76
2021/09/17 13:51:40;;;;;;;;;;;20.00;99.90;;;;;;5081406;28;19913;-81
2021/09/17 13:54:06;;;;;;;;;;;20.10;99.90;;;;;;5078375;28;19909;-78
2021/09/17 13:56:31;;;;;;;;;;;20.20;99.90;;;;;;5075222;28;20003;-76
2021/09/17 13:58:57;;;;;;;;;;;20.30;99.90;;;;;;5086685;28;19931;-77
2021/09/17 14:01:22;;;;;;;;;;;20.40;99.90;;;;;;5093610;28;19927;-76
2021/09/17 14:03:48;;;;;;;;;;;20.50;99.90;;;;;;5081389;28;19965;-75
2021/09/17 14:06:13;;;;;;;;;;;20.60;99.90;;;;;;5084577;28;19915;-76
2021/09/17 14:08:39;;;;;;;;;;;20.80;99.90;;;;;;5074801;28;19916;-75
2021/09/17 14:11:04;;;;;;;;;;;20.80;99.90;;;;;;5085095;28;19916;-76
2021/09/17 14:13:30;;;;;;;;;;;20.90;99.90;;;;;;5081627;28;19912;-77
2021/09/17 14:15:55;;;;;;;;;;;20.80;99.90;;;;;;5073288;28;19916;-77